createdAt,value
2022-10-17T00:01:37.205Z,-143.58
2022-10-17T00:04:05.188Z,-143.58
2022-10-17T00:06:33.031Z,-143.58
2022-10-17T00:09:04.511Z,-143.58
2022-10-17T00:11:32.373Z,-143.58
2022-10-17T00:14:00.324Z,-143.58
2022-10-17T00:16:34.364Z,-143.58
2022-10-17T00:19:02.617Z,-143.58
2022-10-17T00:21:30.881Z,-143.58
2022-10-17T00:24:01.245Z,-143.58
2022-10-17T00:26:29.960Z,-143.58
2022-10-17T00:28:59.451Z,-143.58
2022-10-17T00:31:27.595Z,-143.58
2022-10-17T00:33:55.431Z,-143.58
2022-10-17T00:36:25.815Z,-143.58
2022-10-17T00:38:56.046Z,-143.58
2022-10-17T00:41:30.157Z,-143.58
2022-10-17T00:44:20.232Z,-143.58
2022-10-17T00:46:48.058Z,-143.58
2022-10-17T00:49:15.986Z,-143.58
2022-10-17T00:51:47.374Z,-143.58
2022-10-17T00:54:17.713Z,-143.58
2022-10-17T00:56:48.026Z,-143.58
2022-10-17T00:59:18.130Z,-143.58
2022-10-17T01:01:57.068Z,-143.58
2022-10-17T01:04:32.018Z,-143.58
2022-10-17T01:07:00.278Z,-143.58
2022-10-17T01:09:52.817Z,-143.58
2022-10-17T01:12:41.387Z,-143.58
2022-10-17T01:15:46.381Z,-143.58
2022-10-17T01:18:29.455Z,-143.58
2022-10-17T01:21:13.938Z,-143.58
2022-10-17T01:24:23.697Z,-143.58
2022-10-17T01:27:29.673Z,-143.58
2022-10-17T01:30:16.153Z,-143.58
2022-10-17T01:33:04.809Z,-143.58
2022-10-17T01:35:52.850Z,-143.58
2022-10-17T01:38:23.708Z,-143.58
2022-10-17T01:41:03.477Z,-143.58
2022-10-17T01:43:39.280Z,-143.58
2022-10-17T01:46:31.737Z,-143.58
2022-10-17T01:49:02.101Z,-143.58
2022-10-17T01:51:43.507Z,-143.58
2022-10-17T01:54:22.379Z,-143.58
2022-10-17T01:56:58.012Z,-143.58
2022-10-17T01:59:31.501Z,-143.58
2022-10-17T02:02:01.067Z,-143.58
2022-10-17T02:04:29.405Z,-143.58
2022-10-17T02:06:57.203Z,-143.58
2022-10-17T02:09:50.313Z,-143.58
2022-10-17T02:18:53.282Z,-143.58
2022-10-17T02:21:50.603Z,-143.58
2022-10-17T02:24:34.265Z,-143.58
2022-10-17T02:27:12.601Z,-143.58
2022-10-17T02:29:50.622Z,-143.58
2022-10-17T02:32:53.236Z,-143.58
2022-10-17T02:35:26.212Z,-143.58
2022-10-17T02:37:55.953Z,-143.58
2022-10-17T02:40:25.199Z,-143.58
2022-10-17T02:42:55.918Z,-143.58
2022-10-17T02:45:28.096Z,-143.58
2022-10-17T02:48:05.453Z,-143.58
2022-10-17T02:51:03.689Z,-143.58
2022-10-17T02:54:08.042Z,-143.58
2022-10-17T02:56:51.580Z,-143.58
2022-10-17T02:59:26.860Z,-143.58
2022-10-17T03:01:58.033Z,-143.58
2022-10-17T03:04:30.896Z,-143.58
2022-10-17T03:06:58.879Z,-143.58
2022-10-17T03:09:30.150Z,-143.58
2022-10-17T03:12:01.447Z,-143.58
2022-10-17T03:14:30.487Z,-143.58
2022-10-17T03:17:22.818Z,-143.58
2022-10-17T03:19:50.750Z,-143.58
2022-10-17T03:22:18.378Z,-143.58
2022-10-17T03:24:48.599Z,-143.58
2022-10-17T03:27:17.462Z,-143.58
2022-10-17T03:29:46.640Z,-143.58
2022-10-17T03:32:16.283Z,-143.58
2022-10-17T03:34:45.173Z,-143.58
2022-10-17T03:37:13.688Z,-143.58
2022-10-17T03:39:43.041Z,-143.58
2022-10-17T03:42:15.553Z,-143.58
2022-10-17T03:44:45.480Z,-143.58
2022-10-17T03:47:17.120Z,-143.58
2022-10-17T03:49:46.381Z,-143.58
2022-10-17T03:52:16.131Z,-143.58
2022-10-17T03:54:44.453Z,-143.58
2022-10-17T03:57:12.413Z,-143.58
2022-10-17T03:59:40.879Z,-143.58
2022-10-17T04:03:03.649Z,16.19
2022-10-17T04:06:02.947Z,16.25
2022-10-17T04:08:34.504Z,16.22
2022-10-17T04:11:19.701Z,16.29
2022-10-17T04:14:38.644Z,16.33
2022-10-17T04:17:06.578Z,16.30
2022-10-17T04:19:38.854Z,16.37
2022-10-17T04:22:09.764Z,16.41
2022-10-17T04:24:40.086Z,16.46
2022-10-17T04:27:14.513Z,16.47
2022-10-17T04:29:45.633Z,16.46
2022-10-17T04:32:26.219Z,16.44
2022-10-17T04:35:20.319Z,16.45
2022-10-17T04:37:52.963Z,16.43
2022-10-17T04:40:21.501Z,16.43
2022-10-17T04:42:51.854Z,16.42
2022-10-17T04:45:22.255Z,16.42
2022-10-17T04:47:54.406Z,16.40
2022-10-17T04:50:23.715Z,16.42
2022-10-17T04:53:11.462Z,16.42
2022-10-17T04:55:39.755Z,16.47
2022-10-17T04:58:07.862Z,16.51
2022-10-17T05:00:36.630Z,16.56
2022-10-17T05:03:22.945Z,16.58
2022-10-17T05:05:50.898Z,16.57
2022-10-17T05:08:19.016Z,16.57
2022-10-17T05:10:47.099Z,16.61
2022-10-17T05:13:15.001Z,16.68
2022-10-17T05:15:43.083Z,16.72
2022-10-17T05:18:13.011Z,16.78
2022-10-17T05:20:42.977Z,16.84
2022-10-17T05:23:10.997Z,16.89
2022-10-17T05:25:46.569Z,16.94
2022-10-17T05:28:14.483Z,16.89
2022-10-17T05:30:50.756Z,16.86
2022-10-17T05:33:19.005Z,16.77
2022-10-17T05:35:46.858Z,16.78
2022-10-17T05:38:15.064Z,16.76
2022-10-17T05:40:46.057Z,16.73
2022-10-17T05:43:15.063Z,16.69
2022-10-17T05:45:44.121Z,16.71
2022-10-17T05:48:18.186Z,16.73
2022-10-17T05:50:46.668Z,16.78
2022-10-17T05:53:18.532Z,16.73
2022-10-17T05:56:00.541Z,16.74
2022-10-17T06:01:28.769Z,16.76
2022-10-17T06:03:58.697Z,16.80
2022-10-17T06:06:29.768Z,16.79
2022-10-17T06:08:57.683Z,16.78
2022-10-17T06:11:31.620Z,16.79
2022-10-17T06:14:00.538Z,16.81
2022-10-17T06:16:55.386Z,16.93
2022-10-17T06:19:24.954Z,16.97
2022-10-17T06:21:53.215Z,17.04
2022-10-17T06:24:23.337Z,17.09
2022-10-17T06:26:53.478Z,17.11
2022-10-17T06:29:22.869Z,17.09
2022-10-17T06:31:54.329Z,17.15
2022-10-17T06:34:22.439Z,17.23
2022-10-17T06:36:50.525Z,17.36
2022-10-17T06:40:12.204Z,17.52
2022-10-17T06:42:41.926Z,17.54
2022-10-17T06:45:58.510Z,17.58
2022-10-17T06:48:39.439Z,17.64
2022-10-17T06:51:19.376Z,17.82
2022-10-17T06:53:55.095Z,17.90
2022-10-17T06:56:39.419Z,18.02
2022-10-17T06:59:22.869Z,18.07
2022-10-17T07:01:56.760Z,18.13
2022-10-17T07:04:26.335Z,18.28
2022-10-17T07:06:55.566Z,18.41
2022-10-17T07:09:28.004Z,18.46
2022-10-17T07:12:13.365Z,18.56
2022-10-17T07:14:47.564Z,18.70
2022-10-17T07:17:17.832Z,18.76
2022-10-17T07:19:46.419Z,18.73
2022-10-17T07:22:14.375Z,18.69
2022-10-17T07:24:46.312Z,18.67
2022-10-17T07:27:34.785Z,18.69
2022-10-17T07:30:04.053Z,18.72
2022-10-17T07:32:57.511Z,18.85
2022-10-17T07:35:25.632Z,18.92
2022-10-17T07:37:53.384Z,18.96
2022-10-17T07:40:22.775Z,19.08
2022-10-17T07:42:56.680Z,19.17
2022-10-17T07:45:27.882Z,19.22
2022-10-17T07:47:59.617Z,19.29
2022-10-17T07:50:27.447Z,19.33
2022-10-17T07:52:55.414Z,19.42
2022-10-17T07:55:28.258Z,19.53
2022-10-17T07:57:58.496Z,19.66
2022-10-17T08:00:27.302Z,19.76
2022-10-17T08:02:57.042Z,19.82
2022-10-17T08:05:24.802Z,19.80
2022-10-17T08:07:52.543Z,19.83
2022-10-17T08:10:45.558Z,19.85
2022-10-17T08:13:34.870Z,19.74
2022-10-17T08:16:21.002Z,19.80
2022-10-17T08:18:50.031Z,19.81
2022-10-17T08:21:18.219Z,19.89
2022-10-17T08:23:47.680Z,19.98
2022-10-17T08:26:17.513Z,20.07
2022-10-17T08:28:45.525Z,20.16
2022-10-17T08:31:19.022Z,20.30
2022-10-17T08:33:48.680Z,20.34
2022-10-17T08:36:19.301Z,20.40
2022-10-17T08:38:56.594Z,20.46
2022-10-17T08:42:05.530Z,20.54
2022-10-17T08:45:04.689Z,20.61
2022-10-17T08:47:40.175Z,20.67
2022-10-17T08:50:18.477Z,20.67
2022-10-17T08:52:57.474Z,20.68
2022-10-17T08:55:37.855Z,20.71
2022-10-17T08:58:19.662Z,20.71
2022-10-17T09:01:00.825Z,20.74
2022-10-17T09:03:47.954Z,20.68
2022-10-17T09:06:21.011Z,20.76
2022-10-17T09:09:22.807Z,20.88
2022-10-17T09:15:13.436Z,20.91
2022-10-17T09:18:08.211Z,21.00
2022-10-17T09:24:09.575Z,21.26
2022-10-17T09:26:44.704Z,21.35
2022-10-17T09:29:52.292Z,21.48
2022-10-17T09:39:22.946Z,21.67
2022-10-17T09:42:24.186Z,21.65
2022-10-17T09:51:14.732Z,21.77
2022-10-17T09:54:22.634Z,21.84
2022-10-17T09:57:17.596Z,21.85
2022-10-17T09:59:59.618Z,21.98
2022-10-17T10:03:22.145Z,22.04
2022-10-17T10:06:18.993Z,22.11
2022-10-17T10:08:55.862Z,22.11
2022-10-17T10:11:54.167Z,22.17
2022-10-17T10:14:33.815Z,22.33
2022-10-17T10:17:24.563Z,22.63
2022-10-17T10:19:53.030Z,22.66
2022-10-17T10:22:26.129Z,22.62
2022-10-17T10:25:15.876Z,-143.58
2022-10-17T10:27:45.461Z,-143.58
2022-10-17T10:30:25.800Z,-143.58
2022-10-17T10:32:56.973Z,-143.58
2022-10-17T10:35:58.255Z,-143.58
2022-10-17T10:38:26.154Z,-143.58
2022-10-17T10:41:43.982Z,-143.58
2022-10-17T10:44:15.899Z,-143.58
2022-10-17T10:46:44.901Z,-143.58
2022-10-17T10:49:30.852Z,-143.58
2022-10-17T10:52:00.724Z,-143.58
2022-10-17T10:54:40.253Z,-143.58
2022-10-17T10:57:20.732Z,-143.58
2022-10-17T11:00:04.363Z,-143.58
2022-10-17T11:03:11.811Z,-143.58
2022-10-17T11:05:51.358Z,-143.58
2022-10-17T11:08:36.953Z,-143.58
2022-10-17T11:11:18.581Z,-143.58
2022-10-17T11:13:58.611Z,-143.58
2022-10-17T11:16:49.463Z,-143.58
2022-10-17T11:19:25.714Z,-143.58
2022-10-17T11:22:15.892Z,-143.58
2022-10-17T11:25:23.042Z,-143.58
2022-10-17T11:27:51.842Z,-143.58
2022-10-17T11:30:19.756Z,-143.58
2022-10-17T11:32:57.367Z,-143.58
2022-10-17T11:35:25.770Z,-143.58
2022-10-17T11:38:21.059Z,-143.58
2022-10-17T11:40:53.656Z,-143.58
2022-10-17T11:43:33.918Z,-143.58
2022-10-17T11:46:16.233Z,-143.58
2022-10-17T11:52:26.968Z,-143.58
2022-10-17T11:55:32.306Z,-143.58
2022-10-17T11:58:19.008Z,-143.58
2022-10-17T12:01:15.418Z,-143.58
2022-10-17T12:04:16.136Z,-143.58
2022-10-17T12:06:53.307Z,-143.58
2022-10-17T12:09:46.231Z,-143.58
2022-10-17T12:12:26.887Z,-143.58
2022-10-17T12:14:55.352Z,-143.58
2022-10-17T12:17:33.046Z,-143.58
2022-10-17T12:20:29.095Z,-143.58
2022-10-17T12:23:11.110Z,-143.58
2022-10-17T12:26:04.661Z,-143.58
2022-10-17T12:28:44.669Z,-143.58
2022-10-17T12:31:19.322Z,-143.58
2022-10-17T12:33:46.997Z,-143.58
2022-10-17T12:36:17.748Z,-143.58
2022-10-17T12:38:49.920Z,-143.58
2022-10-17T12:41:45.304Z,-143.58
2022-10-17T12:44:16.684Z,-143.58
2022-10-17T12:47:35.826Z,-143.58
2022-10-17T12:50:04.473Z,-143.58
2022-10-17T12:52:32.144Z,-143.58
2022-10-17T12:55:12.565Z,-143.58
2022-10-17T12:57:53.454Z,-143.58
2022-10-17T13:00:36.221Z,-143.58
2022-10-17T13:03:29.121Z,-143.58
2022-10-17T13:06:03.790Z,-143.58
2022-10-17T13:08:44.999Z,-143.58
2022-10-17T13:11:14.694Z,-143.58
2022-10-17T13:13:50.182Z,-143.58
2022-10-17T13:16:39.233Z,-143.58
2022-10-17T13:19:40.529Z,-143.58
2022-10-17T13:22:17.359Z,-143.58
2022-10-17T13:24:45.398Z,-143.58
2022-10-17T13:27:27.711Z,-143.58
2022-10-17T13:29:57.594Z,-143.58
2022-10-17T13:32:28.027Z,-143.58
2022-10-17T13:35:14.527Z,-143.58
2022-10-17T13:37:45.054Z,-143.58
2022-10-17T13:43:19.588Z,-143.58
2022-10-17T13:45:54.632Z,-143.58
2022-10-17T13:48:28.453Z,-143.58
2022-10-17T13:51:03.430Z,-143.58
2022-10-17T13:53:35.454Z,-143.58
2022-10-17T13:56:33.135Z,-143.58
2022-10-17T13:59:43.184Z,-143.58
2022-10-17T14:02:25.588Z,-143.58
2022-10-17T14:05:25.663Z,-143.58
2022-10-17T14:08:14.270Z,-143.58
2022-10-17T14:10:48.738Z,-143.58
2022-10-17T14:13:27.069Z,-143.58
2022-10-17T14:15:56.983Z,-143.58
2022-10-17T14:18:33.262Z,-143.58
2022-10-17T14:21:40.593Z,-143.58
2022-10-17T14:24:35.861Z,-143.58
2022-10-17T14:27:03.681Z,-143.58
2022-10-17T14:29:50.190Z,-143.58
2022-10-17T14:33:09.323Z,-143.58
2022-10-17T14:35:41.952Z,-143.58
2022-10-17T14:38:36.611Z,-143.58
2022-10-17T14:41:47.049Z,-143.58
2022-10-17T14:44:36.127Z,-143.58
2022-10-17T14:47:41.865Z,-143.58
2022-10-17T14:50:12.914Z,-143.58
2022-10-17T14:52:42.131Z,-143.58
2022-10-17T14:55:30.062Z,-143.58
2022-10-17T14:57:58.515Z,-143.58
2022-10-17T15:00:26.980Z,-143.58
2022-10-17T15:02:56.352Z,-143.58
2022-10-17T15:05:25.143Z,-143.58
2022-10-17T15:07:54.625Z,-143.58
2022-10-17T15:10:31.800Z,-143.58
2022-10-17T15:13:16.386Z,-143.58
2022-10-17T15:15:52.259Z,-143.58
2022-10-17T15:18:20.171Z,-143.58
2022-10-17T15:20:51.965Z,-143.58
2022-10-17T15:23:33.516Z,-143.58
2022-10-17T15:26:01.869Z,-143.58
2022-10-17T15:28:29.720Z,-143.58
2022-10-17T15:30:57.612Z,-143.58
2022-10-17T15:33:25.429Z,-143.58
2022-10-17T15:35:53.964Z,-143.58
2022-10-17T15:38:21.678Z,-143.58
2022-10-17T15:40:52.493Z,-143.58
2022-10-17T15:43:21.251Z,-143.58
2022-10-17T15:45:49.606Z,-143.58
2022-10-17T15:48:30.780Z,-143.58
2022-10-17T15:51:00.888Z,-143.58
2022-10-17T15:53:30.724Z,-143.58
2022-10-17T15:56:02.382Z,-143.58
2022-10-17T15:58:37.433Z,-143.58
2022-10-17T16:01:08.854Z,-143.58
2022-10-17T16:03:38.387Z,-143.58
2022-10-17T16:06:10.735Z,-143.58
2022-10-17T16:08:45.227Z,-143.58
2022-10-17T16:11:40.763Z,-143.58
2022-10-17T16:14:42.490Z,-143.58
2022-10-17T16:17:14.323Z,-143.58
2022-10-17T16:19:43.444Z,-143.58
2022-10-17T16:22:20.113Z,-143.58
2022-10-17T16:24:49.561Z,-143.58
2022-10-17T16:27:19.352Z,-143.58
2022-10-17T16:29:48.496Z,-143.58
2022-10-17T16:32:18.761Z,-143.58
2022-10-17T16:34:48.571Z,-143.58
2022-10-17T16:37:18.592Z,-143.58
2022-10-17T16:39:54.210Z,-143.58
2022-10-17T16:42:29.659Z,-143.58
2022-10-17T16:44:59.384Z,-143.58
2022-10-17T16:47:30.066Z,-143.58
2022-10-17T16:50:01.837Z,-143.58
2022-10-17T16:52:31.309Z,-143.58
2022-10-17T16:55:05.049Z,-143.58
2022-10-17T16:57:34.584Z,-143.58
2022-10-17T17:00:08.155Z,-143.58
2022-10-17T17:02:38.199Z,-143.58
2022-10-17T17:05:09.272Z,-143.58
2022-10-17T17:07:42.495Z,-143.58
2022-10-17T17:10:11.972Z,-143.58
2022-10-17T17:12:40.119Z,-143.58
2022-10-17T17:15:09.813Z,-143.58
2022-10-17T17:17:55.736Z,-143.58
2022-10-17T17:20:26.389Z,-143.58
2022-10-17T17:22:55.136Z,-143.58
2022-10-17T17:25:23.394Z,-143.58
2022-10-17T17:27:51.397Z,-143.58
2022-10-17T17:30:19.746Z,-143.58
2022-10-17T17:32:47.851Z,-143.58
2022-10-17T17:35:16.823Z,-143.58
2022-10-17T17:37:44.988Z,-143.58
2022-10-17T17:40:17.468Z,-143.58
2022-10-17T17:42:49.060Z,-143.58
2022-10-17T17:45:20.563Z,-143.58
2022-10-17T17:47:54.994Z,-143.58
2022-10-17T17:50:26.820Z,-143.58
2022-10-17T17:53:03.464Z,-143.58
2022-10-17T17:55:34.519Z,-143.58
2022-10-17T17:58:06.614Z,-143.58
2022-10-17T18:00:39.905Z,-143.58
2022-10-17T18:03:22.709Z,-143.58
2022-10-17T18:05:58.693Z,-143.58
2022-10-17T18:08:36.188Z,-143.58
2022-10-17T18:11:10.046Z,-143.58
2022-10-17T18:13:44.543Z,-143.58
2022-10-17T18:16:20.913Z,-143.58
2022-10-17T18:19:02.758Z,-143.58
2022-10-17T18:21:41.798Z,-143.58
2022-10-17T18:24:12.923Z,-143.58
2022-10-17T18:27:22.593Z,-143.58
2022-10-17T18:29:59.847Z,-143.58
2022-10-17T18:32:34.680Z,-143.58
2022-10-17T18:35:06.771Z,-143.58
2022-10-17T18:37:37.504Z,-143.58
2022-10-17T18:40:07.157Z,-143.58
2022-10-17T18:42:35.349Z,-143.58
2022-10-17T18:45:06.067Z,-143.58
2022-10-17T18:47:41.269Z,-143.58
2022-10-17T18:50:09.221Z,-143.58
2022-10-17T18:52:37.185Z,-143.58
2022-10-17T18:55:09.294Z,-143.58
2022-10-17T18:57:38.318Z,-143.58
2022-10-17T19:00:08.815Z,-143.58
2022-10-17T19:02:39.047Z,-143.58
2022-10-17T19:05:11.061Z,-143.58
2022-10-17T19:07:40.731Z,-143.58
2022-10-17T19:10:15.479Z,-143.58
2022-10-17T19:12:46.212Z,-143.58
2022-10-17T19:15:15.377Z,-143.58
2022-10-17T19:17:47.208Z,-143.58
2022-10-17T19:20:19.312Z,-143.58
2022-10-17T19:22:49.199Z,-143.58
2022-10-17T19:25:22.199Z,-143.58
2022-10-17T19:27:54.556Z,-143.58
2022-10-17T19:30:28.282Z,-143.58
2022-10-17T19:33:00.290Z,-143.58
2022-10-17T19:35:45.335Z,-143.58
2022-10-17T19:38:42.847Z,-143.58
2022-10-17T19:41:14.952Z,-143.58
2022-10-17T19:43:47.923Z,-143.58
2022-10-17T19:46:25.846Z,-143.58
2022-10-17T19:49:01.026Z,-143.58
2022-10-17T19:51:33.073Z,-143.58
2022-10-17T19:54:05.851Z,-143.58
2022-10-17T19:56:42.659Z,-143.58
2022-10-17T19:59:21.300Z,-143.58
2022-10-17T20:01:51.519Z,-143.58
2022-10-17T20:04:25.966Z,-143.58
2022-10-17T20:07:12.151Z,-143.58
2022-10-17T20:09:48.782Z,-143.58
2022-10-17T20:12:22.211Z,-143.58
2022-10-17T20:14:58.793Z,-143.58
2022-10-17T20:17:36.888Z,-143.58
2022-10-17T20:20:08.877Z,-143.58
2022-10-17T20:22:36.851Z,-143.58
2022-10-17T20:25:05.756Z,-143.58
2022-10-17T20:27:33.663Z,-143.58
2022-10-17T20:30:02.574Z,-143.58
2022-10-17T20:32:39.424Z,-143.58
2022-10-17T20:35:08.100Z,-143.58
2022-10-17T20:37:42.812Z,-143.58
2022-10-17T20:40:33.599Z,-143.58
2022-10-17T20:43:02.385Z,-143.58
2022-10-17T20:45:43.902Z,-143.58
2022-10-17T20:48:19.337Z,-143.58
2022-10-17T20:50:47.430Z,-143.58
2022-10-17T20:56:24.219Z,-143.58
2022-10-17T20:59:01.613Z,-143.58
2022-10-17T21:01:31.099Z,-143.58
2022-10-17T21:04:06.093Z,-143.58
2022-10-17T21:06:38.642Z,-143.58
2022-10-17T21:09:07.219Z,-143.58
2022-10-17T21:11:35.122Z,-143.58
2022-10-17T21:14:05.474Z,-143.58
2022-10-17T21:16:36.761Z,-143.58
2022-10-17T21:19:05.737Z,-143.58
2022-10-17T21:21:36.571Z,-143.58
2022-10-17T21:24:07.251Z,-143.58
2022-10-17T21:26:36.664Z,-143.58
2022-10-17T21:29:06.113Z,-143.58
2022-10-17T21:31:36.549Z,-143.58
2022-10-17T21:34:13.783Z,-143.58
2022-10-17T21:36:42.289Z,-143.58
2022-10-17T21:39:11.663Z,-143.58
2022-10-17T21:41:39.482Z,-143.58
2022-10-17T21:44:12.876Z,-143.58
2022-10-17T21:46:41.300Z,-143.58
2022-10-17T21:49:10.988Z,-143.58
2022-10-17T21:51:39.547Z,-143.58
2022-10-17T21:54:07.667Z,-143.58
2022-10-17T21:56:36.545Z,-143.58
2022-10-17T21:59:05.265Z,-143.58
2022-10-17T22:01:41.835Z,-143.58
2022-10-17T22:04:16.064Z,-143.58
2022-10-17T22:06:45.535Z,-143.58
2022-10-17T22:09:20.055Z,-143.58
2022-10-17T22:11:51.239Z,-143.58
2022-10-17T22:14:23.649Z,-143.58
2022-10-17T22:16:51.570Z,-143.58
2022-10-17T22:19:22.989Z,-143.58
2022-10-17T22:21:51.393Z,-143.58
2022-10-17T22:26:54.064Z,-143.58
2022-10-17T22:29:21.897Z,-143.58
2022-10-17T22:31:49.789Z,-143.58
2022-10-17T22:34:19.073Z,-143.58
2022-10-17T22:36:49.066Z,-143.58
2022-10-17T22:39:17.735Z,-143.58
2022-10-17T22:41:45.567Z,-143.58
2022-10-17T22:44:13.238Z,-143.58
2022-10-17T22:46:41.101Z,-143.58
2022-10-17T22:49:34.448Z,-143.58
2022-10-17T22:52:02.259Z,-143.58
2022-10-17T22:54:30.622Z,-143.58
2022-10-17T22:56:58.338Z,-143.58
2022-10-17T22:59:26.031Z,-143.58
2022-10-17T23:01:54.031Z,-143.58
2022-10-17T23:04:21.864Z,-143.58
2022-10-17T23:06:50.687Z,-143.58
2022-10-17T23:09:18.539Z,-143.58
2022-10-17T23:11:46.508Z,-143.58
2022-10-17T23:14:14.330Z,-143.58
2022-10-17T23:16:42.179Z,-143.58
2022-10-17T23:19:09.963Z,-143.58
2022-10-17T23:21:37.713Z,-143.58
2022-10-17T23:24:05.954Z,-143.58
2022-10-17T23:26:33.750Z,-143.58
2022-10-17T23:29:01.582Z,-143.58
2022-10-17T23:34:06.870Z,-143.58
2022-10-17T23:36:35.997Z,-143.58
2022-10-17T23:39:03.954Z,-143.58
2022-10-17T23:41:33.083Z,-143.58
2022-10-17T23:44:26.419Z,-143.58
2022-10-17T23:46:54.354Z,-143.58
2022-10-17T23:49:23.741Z,-143.58
2022-10-17T23:51:51.587Z,-143.58
2022-10-17T23:54:20.823Z,-143.58
2022-10-17T23:56:51.793Z,-143.58
2022-10-17T23:59:20.692Z,-143.58
